sensor_id;sensor_type;location;lat;lon;timestamp;P1;durP1;ratioP1;P2;durP2;ratioP2
2662;SDS011;49701;48.072;7.800;2023-07-30T00:01:40;2.15;;;1.70;;
2662;SDS011;49701;48.072;7.800;2023-07-30T00:04:06;2.95;;;2.35;;
2662;SDS011;49701;48.072;7.800;2023-07-30T00:06:32;3.20;;;2.20;;
2662;SDS011;49701;48.072;7.800;2023-07-30T00:08:57;2.42;;;1.92;;
2662;SDS011;49701;48.072;7.800;2023-07-30T00:11:23;3.03;;;2.25;;
2662;SDS011;49701;48.072;7.800;2023-07-30T00:13:49;4.15;;;2.30;;
2662;SDS011;49701;48.072;7.800;2023-07-30T00:16:15;4.50;;;2.00;;
2662;SDS011;49701;48.072;7.800;2023-07-30T00:18:40;2.47;;;2.05;;
2662;SDS011;49701;48.072;7.800;2023-07-30T00:21:06;2.33;;;2.13;;
2662;SDS011;49701;48.072;7.800;2023-07-30T00:23:31;2.13;;;1.92;;
2662;SDS011;49701;48.072;7.800;2023-07-30T00:25:57;2.75;;;2.10;;
2662;SDS011;49701;48.072;7.800;2023-07-30T00:28:23;2.40;;;1.98;;
2662;SDS011;49701;48.072;7.800;2023-07-30T00:30:48;3.67;;;2.60;;
2662;SDS011;49701;48.072;7.800;2023-07-30T00:33:14;3.15;;;2.13;;
2662;SDS011;49701;48.072;7.800;2023-07-30T00:35:40;3.47;;;2.15;;
2662;SDS011;49701;48.072;7.800;2023-07-30T00:38:06;2.47;;;1.85;;
2662;SDS011;49701;48.072;7.800;2023-07-30T00:40:31;3.15;;;2.20;;
2662;SDS011;49701;48.072;7.800;2023-07-30T00:42:57;3.42;;;1.92;;
2662;SDS011;49701;48.072;7.800;2023-07-30T00:45:23;2.38;;;1.73;;
2662;SDS011;49701;48.072;7.800;2023-07-30T00:47:48;2.50;;;2.30;;
2662;SDS011;49701;48.072;7.800;2023-07-30T00:50:17;2.20;;;1.98;;
2662;SDS011;49701;48.072;7.800;2023-07-30T00:52:43;3.47;;;2.35;;
2662;SDS011;49701;48.072;7.800;2023-07-30T00:55:09;2.38;;;1.92;;
2662;SDS011;49701;48.072;7.800;2023-07-30T00:57:35;3.38;;;2.22;;
2662;SDS011;49701;48.072;7.800;2023-07-30T01:00:02;2.58;;;2.15;;
2662;SDS011;49701;48.072;7.800;2023-07-30T01:02:31;3.33;;;2.10;;
2662;SDS011;49701;48.072;7.800;2023-07-30T01:04:56;4.07;;;2.10;;
2662;SDS011;49701;48.072;7.800;2023-07-30T01:07:25;5.38;;;2.28;;
2662;SDS011;49701;48.072;7.800;2023-07-30T01:09:51;2.25;;;2.00;;
2662;SDS011;49701;48.072;7.800;2023-07-30T01:12:17;2.20;;;2.00;;
2662;SDS011;49701;48.072;7.800;2023-07-30T01:14:43;3.25;;;2.28;;
2662;SDS011;49701;48.072;7.800;2023-07-30T01:17:11;4.28;;;2.03;;
2662;SDS011;49701;48.072;7.800;2023-07-30T01:19:37;2.58;;;1.98;;
2662;SDS011;49701;48.072;7.800;2023-07-30T01:22:02;2.35;;;2.00;;
2662;SDS011;49701;48.072;7.800;2023-07-30T01:24:28;2.65;;;1.83;;
2662;SDS011;49701;48.072;7.800;2023-07-30T01:27:07;4.50;;;1.80;;
2662;SDS011;49701;48.072;7.800;2023-07-30T01:29:51;4.18;;;1.98;;
2662;SDS011;49701;48.072;7.800;2023-07-30T01:32:20;3.63;;;1.92;;
2662;SDS011;49701;48.072;7.800;2023-07-30T01:34:49;3.67;;;1.98;;
2662;SDS011;49701;48.072;7.800;2023-07-30T01:37:19;3.53;;;2.03;;
2662;SDS011;49701;48.072;7.800;2023-07-30T01:39:46;2.67;;;2.20;;
2662;SDS011;49701;48.072;7.800;2023-07-30T01:42:14;4.43;;;2.05;;
2662;SDS011;49701;48.072;7.800;2023-07-30T01:44:41;4.28;;;1.98;;
2662;SDS011;49701;48.072;7.800;2023-07-30T01:47:06;1.98;;;1.77;;
2662;SDS011;49701;48.072;7.800;2023-07-30T01:49:32;3.50;;;1.95;;
2662;SDS011;49701;48.072;7.800;2023-07-30T01:51:58;2.15;;;1.85;;
2662;SDS011;49701;48.072;7.800;2023-07-30T01:54:24;3.75;;;2.40;;
2662;SDS011;49701;48.072;7.800;2023-07-30T01:56:50;4.45;;;2.28;;
2662;SDS011;49701;48.072;7.800;2023-07-30T01:59:16;5.25;;;2.30;;
2662;SDS011;49701;48.072;7.800;2023-07-30T02:01:43;2.92;;;1.98;;
2662;SDS011;49701;48.072;7.800;2023-07-30T02:04:09;2.40;;;2.20;;
2662;SDS011;49701;48.072;7.800;2023-07-30T02:06:34;5.00;;;2.05;;
2662;SDS011;49701;48.072;7.800;2023-07-30T02:09:00;2.65;;;2.10;;
2662;SDS011;49701;48.072;7.800;2023-07-30T02:11:26;3.67;;;2.15;;
2662;SDS011;49701;48.072;7.800;2023-07-30T02:13:52;3.10;;;1.83;;
2662;SDS011;49701;48.072;7.800;2023-07-30T02:16:17;2.97;;;2.30;;
2662;SDS011;49701;48.072;7.800;2023-07-30T02:18:44;3.58;;;2.17;;
2662;SDS011;49701;48.072;7.800;2023-07-30T02:21:10;2.70;;;2.38;;
2662;SDS011;49701;48.072;7.800;2023-07-30T02:23:35;3.33;;;2.22;;
2662;SDS011;49701;48.072;7.800;2023-07-30T02:26:01;2.25;;;2.05;;
2662;SDS011;49701;48.072;7.800;2023-07-30T02:28:27;4.50;;;2.20;;
2662;SDS011;49701;48.072;7.800;2023-07-30T02:30:52;2.72;;;2.17;;
2662;SDS011;49701;48.072;7.800;2023-07-30T02:33:18;2.42;;;1.95;;
2662;SDS011;49701;48.072;7.800;2023-07-30T02:35:43;3.30;;;2.20;;
2662;SDS011;49701;48.072;7.800;2023-07-30T02:38:09;3.80;;;1.95;;
2662;SDS011;49701;48.072;7.800;2023-07-30T02:40:35;2.35;;;1.90;;
2662;SDS011;49701;48.072;7.800;2023-07-30T02:43:01;1.98;;;1.83;;
2662;SDS011;49701;48.072;7.800;2023-07-30T02:45:26;2.22;;;2.03;;
2662;SDS011;49701;48.072;7.800;2023-07-30T02:47:52;2.20;;;2.00;;
2662;SDS011;49701;48.072;7.800;2023-07-30T02:50:18;2.17;;;1.83;;
2662;SDS011;49701;48.072;7.800;2023-07-30T02:52:44;3.63;;;2.00;;
2662;SDS011;49701;48.072;7.800;2023-07-30T02:55:09;2.13;;;1.90;;
2662;SDS011;49701;48.072;7.800;2023-07-30T02:57:35;2.28;;;2.05;;
2662;SDS011;49701;48.072;7.800;2023-07-30T03:00:01;3.72;;;2.08;;
2662;SDS011;49701;48.072;7.800;2023-07-30T03:02:29;3.10;;;2.33;;
2662;SDS011;49701;48.072;7.800;2023-07-30T03:04:54;2.80;;;2.03;;
2662;SDS011;49701;48.072;7.800;2023-07-30T03:07:20;4.05;;;1.90;;
2662;SDS011;49701;48.072;7.800;2023-07-30T03:09:46;4.05;;;2.20;;
2662;SDS011;49701;48.072;7.800;2023-07-30T03:12:12;2.45;;;1.88;;
2662;SDS011;49701;48.072;7.800;2023-07-30T03:14:38;4.45;;;1.80;;
2662;SDS011;49701;48.072;7.800;2023-07-30T03:17:04;2.97;;;2.30;;
2662;SDS011;49701;48.072;7.800;2023-07-30T03:19:30;3.35;;;1.70;;
2662;SDS011;49701;48.072;7.800;2023-07-30T03:21:56;2.78;;;2.08;;
2662;SDS011;49701;48.072;7.800;2023-07-30T03:24:22;1.90;;;1.80;;
2662;SDS011;49701;48.072;7.800;2023-07-30T03:26:47;4.68;;;2.33;;
2662;SDS011;49701;48.072;7.800;2023-07-30T03:29:14;3.97;;;2.20;;
2662;SDS011;49701;48.072;7.800;2023-07-30T03:31:40;2.33;;;1.75;;
2662;SDS011;49701;48.072;7.800;2023-07-30T03:34:06;4.18;;;2.10;;
2662;SDS011;49701;48.072;7.800;2023-07-30T03:36:32;2.85;;;2.08;;
2662;SDS011;49701;48.072;7.800;2023-07-30T03:38:58;4.35;;;2.10;;
2662;SDS011;49701;48.072;7.800;2023-07-30T03:41:24;3.85;;;2.05;;
2662;SDS011;49701;48.072;7.800;2023-07-30T03:43:52;2.25;;;2.05;;
2662;SDS011;49701;48.072;7.800;2023-07-30T03:46:17;3.90;;;1.95;;
2662;SDS011;49701;48.072;7.800;2023-07-30T03:48:43;2.30;;;2.08;;
2662;SDS011;49701;48.072;7.800;2023-07-30T03:51:09;2.80;;;1.90;;
2662;SDS011;49701;48.072;7.800;2023-07-30T03:53:34;3.65;;;2.10;;
2662;SDS011;49701;48.072;7.800;2023-07-30T03:56:01;3.20;;;1.73;;
2662;SDS011;49701;48.072;7.800;2023-07-30T03:58:27;3.38;;;2.10;;
2662;SDS011;49701;48.072;7.800;2023-07-30T04:00:52;2.88;;;1.95;;
2662;SDS011;49701;48.072;7.800;2023-07-30T04:03:18;5.82;;;2.00;;
2662;SDS011;49701;48.072;7.800;2023-07-30T04:05:44;4.60;;;2.17;;
2662;SDS011;49701;48.072;7.800;2023-07-30T04:08:09;3.72;;;1.90;;
2662;SDS011;49701;48.072;7.800;2023-07-30T04:10:35;3.13;;;1.92;;
2662;SDS011;49701;48.072;7.800;2023-07-30T04:13:01;2.20;;;2.00;;
2662;SDS011;49701;48.072;7.800;2023-07-30T04:15:26;2.05;;;1.90;;
2662;SDS011;49701;48.072;7.800;2023-07-30T04:17:52;3.95;;;1.77;;
2662;SDS011;49701;48.072;7.800;2023-07-30T04:20:18;2.00;;;1.70;;
2662;SDS011;49701;48.072;7.800;2023-07-30T04:22:44;4.28;;;2.05;;
2662;SDS011;49701;48.072;7.800;2023-07-30T04:25:10;4.13;;;2.20;;
2662;SDS011;49701;48.072;7.800;2023-07-30T04:27:38;3.40;;;2.10;;
2662;SDS011;49701;48.072;7.800;2023-07-30T04:30:05;2.53;;;1.80;;
2662;SDS011;49701;48.072;7.800;2023-07-30T04:32:32;2.20;;;1.65;;
2662;SDS011;49701;48.072;7.800;2023-07-30T04:34:57;2.42;;;1.83;;
2662;SDS011;49701;48.072;7.800;2023-07-30T04:37:23;2.10;;;1.90;;
2662;SDS011;49701;48.072;7.800;2023-07-30T04:39:51;2.10;;;1.92;;
2662;SDS011;49701;48.072;7.800;2023-07-30T04:42:17;2.08;;;1.75;;
2662;SDS011;49701;48.072;7.800;2023-07-30T04:44:43;3.75;;;1.80;;
2662;SDS011;49701;48.072;7.800;2023-07-30T04:47:13;2.08;;;1.70;;
2662;SDS011;49701;48.072;7.800;2023-07-30T04:49:38;3.05;;;2.00;;
2662;SDS011;49701;48.072;7.800;2023-07-30T04:52:06;1.77;;;1.60;;
2662;SDS011;49701;48.072;7.800;2023-07-30T04:54:33;2.22;;;1.77;;
2662;SDS011;49701;48.072;7.800;2023-07-30T04:56:59;1.80;;;1.70;;
2662;SDS011;49701;48.072;7.800;2023-07-30T04:59:24;3.45;;;1.90;;
2662;SDS011;49701;48.072;7.800;2023-07-30T05:01:50;3.40;;;2.05;;
2662;SDS011;49701;48.072;7.800;2023-07-30T05:04:16;3.05;;;1.58;;
2662;SDS011;49701;48.072;7.800;2023-07-30T05:06:42;2.50;;;1.80;;
2662;SDS011;49701;48.072;7.800;2023-07-30T05:09:08;3.10;;;1.65;;
2662;SDS011;49701;48.072;7.800;2023-07-30T05:11:33;1.63;;;1.52;;
2662;SDS011;49701;48.072;7.800;2023-07-30T05:13:59;2.65;;;1.60;;
2662;SDS011;49701;48.072;7.800;2023-07-30T05:16:25;2.10;;;1.50;;
2662;SDS011;49701;48.072;7.800;2023-07-30T05:18:50;2.15;;;1.65;;
2662;SDS011;49701;48.072;7.800;2023-07-30T05:21:16;2.03;;;1.48;;
2662;SDS011;49701;48.072;7.800;2023-07-30T05:23:42;2.15;;;1.25;;
2662;SDS011;49701;48.072;7.800;2023-07-30T05:26:07;3.83;;;1.60;;
2662;SDS011;49701;48.072;7.800;2023-07-30T05:28:33;2.10;;;1.63;;
2662;SDS011;49701;48.072;7.800;2023-07-30T05:30:59;1.60;;;1.50;;
2662;SDS011;49701;48.072;7.800;2023-07-30T05:33:24;2.28;;;1.58;;
2662;SDS011;49701;48.072;7.800;2023-07-30T05:35:50;1.95;;;1.58;;
2662;SDS011;49701;48.072;7.800;2023-07-30T05:38:16;2.33;;;1.63;;
2662;SDS011;49701;48.072;7.800;2023-07-30T05:40:42;1.70;;;1.60;;
2662;SDS011;49701;48.072;7.800;2023-07-30T05:43:08;1.80;;;1.50;;
2662;SDS011;49701;48.072;7.800;2023-07-30T05:45:34;1.65;;;1.42;;
2662;SDS011;49701;48.072;7.800;2023-07-30T05:48:00;2.53;;;1.55;;
2662;SDS011;49701;48.072;7.800;2023-07-30T05:50:26;2.60;;;1.60;;
2662;SDS011;49701;48.072;7.800;2023-07-30T05:52:51;3.13;;;1.48;;
2662;SDS011;49701;48.072;7.800;2023-07-30T05:55:17;1.67;;;1.58;;
2662;SDS011;49701;48.072;7.800;2023-07-30T05:57:44;2.90;;;1.38;;
2662;SDS011;49701;48.072;7.800;2023-07-30T06:00:10;1.50;;;1.40;;
2662;SDS011;49701;48.072;7.800;2023-07-30T06:02:39;3.33;;;1.60;;
2662;SDS011;49701;48.072;7.800;2023-07-30T06:05:04;1.40;;;1.27;;
2662;SDS011;49701;48.072;7.800;2023-07-30T06:07:30;2.53;;;1.20;;
2662;SDS011;49701;48.072;7.800;2023-07-30T06:09:56;2.45;;;1.58;;
2662;SDS011;49701;48.072;7.800;2023-07-30T06:12:21;2.33;;;1.40;;
2662;SDS011;49701;48.072;7.800;2023-07-30T06:14:47;1.88;;;1.35;;
2662;SDS011;49701;48.072;7.800;2023-07-30T06:17:12;2.90;;;1.42;;
2662;SDS011;49701;48.072;7.800;2023-07-30T06:19:38;2.05;;;1.60;;
2662;SDS011;49701;48.072;7.800;2023-07-30T06:22:04;2.10;;;1.38;;
2662;SDS011;49701;48.072;7.800;2023-07-30T06:24:30;1.92;;;1.50;;
2662;SDS011;49701;48.072;7.800;2023-07-30T06:26:55;2.08;;;1.33;;
2662;SDS011;49701;48.072;7.800;2023-07-30T06:29:21;3.53;;;1.23;;
2662;SDS011;49701;48.072;7.800;2023-07-30T06:31:47;1.95;;;1.40;;
2662;SDS011;49701;48.072;7.800;2023-07-30T06:34:13;1.55;;;1.30;;
2662;SDS011;49701;48.072;7.800;2023-07-30T06:36:38;1.08;;;1.02;;
2662;SDS011;49701;48.072;7.800;2023-07-30T06:39:04;4.25;;;1.30;;
2662;SDS011;49701;48.072;7.800;2023-07-30T06:41:29;1.33;;;1.20;;
2662;SDS011;49701;48.072;7.800;2023-07-30T06:43:55;1.83;;;1.10;;
2662;SDS011;49701;48.072;7.800;2023-07-30T06:46:21;1.45;;;1.35;;
2662;SDS011;49701;48.072;7.800;2023-07-30T06:48:46;2.55;;;1.27;;
2662;SDS011;49701;48.072;7.800;2023-07-30T06:51:12;1.30;;;1.13;;
2662;SDS011;49701;48.072;7.800;2023-07-30T06:53:39;1.33;;;1.15;;
2662;SDS011;49701;48.072;7.800;2023-07-30T06:56:04;1.88;;;1.40;;
2662;SDS011;49701;48.072;7.800;2023-07-30T06:58:30;1.90;;;1.15;;
2662;SDS011;49701;48.072;7.800;2023-07-30T07:00:56;4.50;;;1.10;;
2662;SDS011;49701;48.072;7.800;2023-07-30T07:03:21;1.77;;;1.20;;
2662;SDS011;49701;48.072;7.800;2023-07-30T07:05:54;2.15;;;1.10;;
2662;SDS011;49701;48.072;7.800;2023-07-30T07:08:20;2.97;;;1.20;;
2662;SDS011;49701;48.072;7.800;2023-07-30T07:10:46;1.98;;;1.38;;
2662;SDS011;49701;48.072;7.800;2023-07-30T07:13:12;2.00;;;1.30;;
2662;SDS011;49701;48.072;7.800;2023-07-30T07:15:40;5.28;;;1.55;;
2662;SDS011;49701;48.072;7.800;2023-07-30T07:18:07;1.05;;;1.02;;
2662;SDS011;49701;48.072;7.800;2023-07-30T07:20:33;1.30;;;1.15;;
2662;SDS011;49701;48.072;7.800;2023-07-30T07:22:58;2.22;;;1.20;;
2662;SDS011;49701;48.072;7.800;2023-07-30T07:25:24;1.45;;;1.15;;
2662;SDS011;49701;48.072;7.800;2023-07-30T07:27:50;1.48;;;1.30;;
2662;SDS011;49701;48.072;7.800;2023-07-30T07:30:15;4.70;;;1.00;;
2662;SDS011;49701;48.072;7.800;2023-07-30T07:32:41;1.65;;;0.90;;
2662;SDS011;49701;48.072;7.800;2023-07-30T07:35:07;1.50;;;1.40;;
2662;SDS011;49701;48.072;7.800;2023-07-30T07:37:33;2.83;;;1.23;;
2662;SDS011;49701;48.072;7.800;2023-07-30T07:39:59;1.35;;;1.15;;
2662;SDS011;49701;48.072;7.800;2023-07-30T07:42:24;3.15;;;1.65;;
2662;SDS011;49701;48.072;7.800;2023-07-30T07:44:50;1.98;;;1.20;;
2662;SDS011;49701;48.072;7.800;2023-07-30T07:47:15;1.55;;;1.20;;
2662;SDS011;49701;48.072;7.800;2023-07-30T07:49:41;1.20;;;1.10;;
2662;SDS011;49701;48.072;7.800;2023-07-30T07:52:07;2.75;;;1.58;;
2662;SDS011;49701;48.072;7.800;2023-07-30T07:54:33;3.70;;;1.30;;
2662;SDS011;49701;48.072;7.800;2023-07-30T07:56:59;1.52;;;1.40;;
2662;SDS011;49701;48.072;7.800;2023-07-30T07:59:25;2.50;;;1.55;;
2662;SDS011;49701;48.072;7.800;2023-07-30T08:01:52;1.73;;;1.20;;
2662;SDS011;49701;48.072;7.800;2023-07-30T08:04:18;1.40;;;1.30;;
2662;SDS011;49701;48.072;7.800;2023-07-30T08:06:46;1.05;;;1.05;;
2662;SDS011;49701;48.072;7.800;2023-07-30T08:09:12;2.53;;;1.42;;
2662;SDS011;49701;48.072;7.800;2023-07-30T08:11:38;1.75;;;1.20;;
2662;SDS011;49701;48.072;7.800;2023-07-30T08:14:03;1.50;;;1.30;;
2662;SDS011;49701;48.072;7.800;2023-07-30T08:16:29;1.35;;;1.25;;
2662;SDS011;49701;48.072;7.800;2023-07-30T08:18:55;1.75;;;1.35;;
2662;SDS011;49701;48.072;7.800;2023-07-30T08:21:21;1.23;;;1.13;;
2662;SDS011;49701;48.072;7.800;2023-07-30T08:23:46;1.55;;;1.30;;
2662;SDS011;49701;48.072;7.800;2023-07-30T08:26:12;1.25;;;1.15;;
2662;SDS011;49701;48.072;7.800;2023-07-30T08:28:38;2.15;;;1.13;;
2662;SDS011;49701;48.072;7.800;2023-07-30T08:31:04;3.47;;;1.27;;
2662;SDS011;49701;48.072;7.800;2023-07-30T08:33:30;3.83;;;1.30;;
2662;SDS011;49701;48.072;7.800;2023-07-30T08:35:56;4.53;;;1.23;;
2662;SDS011;49701;48.072;7.800;2023-07-30T08:38:23;1.55;;;1.20;;
2662;SDS011;49701;48.072;7.800;2023-07-30T08:40:49;1.48;;;1.35;;
2662;SDS011;49701;48.072;7.800;2023-07-30T08:43:15;5.85;;;1.08;;
2662;SDS011;49701;48.072;7.800;2023-07-30T08:45:42;3.80;;;1.10;;
2662;SDS011;49701;48.072;7.800;2023-07-30T08:48:08;2.10;;;0.90;;
2662;SDS011;49701;48.072;7.800;2023-07-30T08:50:34;2.28;;;0.95;;
2662;SDS011;49701;48.072;7.800;2023-07-30T08:53:02;0.95;;;0.85;;
2662;SDS011;49701;48.072;7.800;2023-07-30T08:55:28;3.83;;;1.30;;
2662;SDS011;49701;48.072;7.800;2023-07-30T08:57:58;1.27;;;0.95;;
2662;SDS011;49701;48.072;7.800;2023-07-30T09:00:30;2.13;;;1.00;;
2662;SDS011;49701;48.072;7.800;2023-07-30T09:02:59;2.00;;;1.23;;
2662;SDS011;49701;48.072;7.800;2023-07-30T09:05:25;1.88;;;1.05;;
2662;SDS011;49701;48.072;7.800;2023-07-30T09:07:54;2.05;;;1.27;;
2662;SDS011;49701;48.072;7.800;2023-07-30T09:10:21;1.42;;;0.90;;
2662;SDS011;49701;48.072;7.800;2023-07-30T09:12:52;3.10;;;1.33;;
2662;SDS011;49701;48.072;7.800;2023-07-30T09:15:20;2.67;;;0.90;;
2662;SDS011;49701;48.072;7.800;2023-07-30T09:20:39;1.98;;;1.20;;
2662;SDS011;49701;48.072;7.800;2023-07-30T09:23:07;1.20;;;1.10;;
2662;SDS011;49701;48.072;7.800;2023-07-30T09:25:34;2.55;;;1.15;;
2662;SDS011;49701;48.072;7.800;2023-07-30T09:28:00;1.58;;;1.10;;
2662;SDS011;49701;48.072;7.800;2023-07-30T09:30:26;1.27;;;1.10;;
2662;SDS011;49701;48.072;7.800;2023-07-30T09:32:53;1.23;;;1.10;;
2662;SDS011;49701;48.072;7.800;2023-07-30T09:35:21;1.38;;;0.98;;
2662;SDS011;49701;48.072;7.800;2023-07-30T09:37:47;1.85;;;1.00;;
2662;SDS011;49701;48.072;7.800;2023-07-30T09:40:14;1.40;;;1.08;;
2662;SDS011;49701;48.072;7.800;2023-07-30T09:42:48;2.40;;;1.00;;
2662;SDS011;49701;48.072;7.800;2023-07-30T09:45:20;2.25;;;0.90;;
2662;SDS011;49701;48.072;7.800;2023-07-30T09:47:48;1.30;;;1.08;;
2662;SDS011;49701;48.072;7.800;2023-07-30T09:50:18;1.70;;;1.13;;
2662;SDS011;49701;48.072;7.800;2023-07-30T09:52:44;2.70;;;1.23;;
2662;SDS011;49701;48.072;7.800;2023-07-30T09:55:10;1.52;;;1.30;;
2662;SDS011;49701;48.072;7.800;2023-07-30T09:57:37;1.42;;;1.10;;
2662;SDS011;49701;48.072;7.800;2023-07-30T10:00:03;2.28;;;0.98;;
2662;SDS011;49701;48.072;7.800;2023-07-30T10:02:32;1.55;;;1.00;;
2662;SDS011;49701;48.072;7.800;2023-07-30T10:05:03;2.13;;;1.08;;
2662;SDS011;49701;48.072;7.800;2023-07-30T10:07:35;1.85;;;1.13;;
2662;SDS011;49701;48.072;7.800;2023-07-30T10:10:03;2.63;;;1.17;;
2662;SDS011;49701;48.072;7.800;2023-07-30T10:12:31;1.33;;;1.23;;
2662;SDS011;49701;48.072;7.800;2023-07-30T10:14:58;1.48;;;0.80;;
2662;SDS011;49701;48.072;7.800;2023-07-30T10:17:25;1.17;;;1.10;;
2662;SDS011;49701;48.072;7.800;2023-07-30T10:19:51;1.25;;;0.95;;
2662;SDS011;49701;48.072;7.800;2023-07-30T10:24:55;1.23;;;1.13;;
2662;SDS011;49701;48.072;7.800;2023-07-30T10:27:24;3.10;;;1.10;;
2662;SDS011;49701;48.072;7.800;2023-07-30T10:30:07;0.98;;;0.98;;
2662;SDS011;49701;48.072;7.800;2023-07-30T10:35:36;1.63;;;1.23;;
2662;SDS011;49701;48.072;7.800;2023-07-30T10:38:39;1.20;;;1.10;;
2662;SDS011;49701;48.072;7.800;2023-07-30T10:43:36;4.53;;;1.80;;
2662;SDS011;49701;48.072;7.800;2023-07-30T10:46:04;1.52;;;1.42;;
2662;SDS011;49701;48.072;7.800;2023-07-30T10:48:34;4.43;;;1.20;;
2662;SDS011;49701;48.072;7.800;2023-07-30T10:51:01;2.15;;;1.42;;
2662;SDS011;49701;48.072;7.800;2023-07-30T10:53:29;1.92;;;1.20;;
2662;SDS011;49701;48.072;7.800;2023-07-30T10:55:57;2.08;;;1.23;;
2662;SDS011;49701;48.072;7.800;2023-07-30T10:58:31;3.40;;;1.40;;
2662;SDS011;49701;48.072;7.800;2023-07-30T11:00:58;5.82;;;1.35;;
2662;SDS011;49701;48.072;7.800;2023-07-30T11:03:24;1.95;;;1.23;;
2662;SDS011;49701;48.072;7.800;2023-07-30T11:05:54;3.25;;;1.40;;
2662;SDS011;49701;48.072;7.800;2023-07-30T11:08:36;1.73;;;1.20;;
2662;SDS011;49701;48.072;7.800;2023-07-30T11:11:03;1.30;;;1.20;;
2662;SDS011;49701;48.072;7.800;2023-07-30T11:13:37;3.13;;;1.30;;
2662;SDS011;49701;48.072;7.800;2023-07-30T11:16:05;1.73;;;1.05;;
2662;SDS011;49701;48.072;7.800;2023-07-30T11:18:32;1.83;;;1.20;;
2662;SDS011;49701;48.072;7.800;2023-07-30T11:21:07;1.83;;;1.50;;
2662;SDS011;49701;48.072;7.800;2023-07-30T11:23:36;4.20;;;1.58;;
2662;SDS011;49701;48.072;7.800;2023-07-30T11:26:03;2.33;;;1.05;;
2662;SDS011;49701;48.072;7.800;2023-07-30T11:31:16;1.95;;;1.00;;
2662;SDS011;49701;48.072;7.800;2023-07-30T11:33:48;1.65;;;1.15;;
2662;SDS011;49701;48.072;7.800;2023-07-30T11:36:18;1.75;;;1.20;;
2662;SDS011;49701;48.072;7.800;2023-07-30T11:38:45;2.80;;;1.25;;
2662;SDS011;49701;48.072;7.800;2023-07-30T11:41:13;1.73;;;1.30;;
2662;SDS011;49701;48.072;7.800;2023-07-30T11:43:40;2.92;;;1.23;;
2662;SDS011;49701;48.072;7.800;2023-07-30T11:46:11;2.35;;;1.08;;
2662;SDS011;49701;48.072;7.800;2023-07-30T11:48:45;2.30;;;1.30;;
2662;SDS011;49701;48.072;7.800;2023-07-30T11:53:45;2.25;;;1.15;;
2662;SDS011;49701;48.072;7.800;2023-07-30T11:56:18;2.55;;;1.20;;
2662;SDS011;49701;48.072;7.800;2023-07-30T11:58:47;1.67;;;1.38;;
2662;SDS011;49701;48.072;7.800;2023-07-30T12:01:14;1.27;;;1.17;;
2662;SDS011;49701;48.072;7.800;2023-07-30T12:03:40;1.30;;;1.20;;
2662;SDS011;49701;48.072;7.800;2023-07-30T12:06:06;2.15;;;1.20;;
2662;SDS011;49701;48.072;7.800;2023-07-30T12:08:34;1.58;;;1.30;;
2662;SDS011;49701;48.072;7.800;2023-07-30T12:11:07;2.78;;;1.13;;
2662;SDS011;49701;48.072;7.800;2023-07-30T12:13:33;2.30;;;1.30;;
2662;SDS011;49701;48.072;7.800;2023-07-30T12:16:07;2.95;;;1.30;;
2662;SDS011;49701;48.072;7.800;2023-07-30T12:18:32;2.80;;;1.20;;
2662;SDS011;49701;48.072;7.800;2023-07-30T12:20:58;1.60;;;1.20;;
2662;SDS011;49701;48.072;7.800;2023-07-30T12:23:24;1.65;;;1.10;;
2662;SDS011;49701;48.072;7.800;2023-07-30T12:25:50;5.00;;;1.38;;
2662;SDS011;49701;48.072;7.800;2023-07-30T12:28:16;1.90;;;1.10;;
2662;SDS011;49701;48.072;7.800;2023-07-30T12:30:41;3.25;;;1.40;;
2662;SDS011;49701;48.072;7.800;2023-07-30T12:33:07;1.67;;;1.20;;
2662;SDS011;49701;48.072;7.800;2023-07-30T12:35:33;2.40;;;1.20;;
2662;SDS011;49701;48.072;7.800;2023-07-30T12:37:59;2.90;;;1.25;;
2662;SDS011;49701;48.072;7.800;2023-07-30T12:40:26;2.30;;;1.30;;
2662;SDS011;49701;48.072;7.800;2023-07-30T12:42:54;3.45;;;1.05;;
2662;SDS011;49701;48.072;7.800;2023-07-30T12:45:20;3.40;;;1.10;;
2662;SDS011;49701;48.072;7.800;2023-07-30T12:47:46;1.45;;;1.35;;
2662;SDS011;49701;48.072;7.800;2023-07-30T12:50:12;4.05;;;1.10;;
2662;SDS011;49701;48.072;7.800;2023-07-30T12:52:38;5.05;;;1.95;;
2662;SDS011;49701;48.072;7.800;2023-07-30T12:55:04;2.85;;;1.45;;
2662;SDS011;49701;48.072;7.800;2023-07-30T12:57:30;2.90;;;1.17;;
2662;SDS011;49701;48.072;7.800;2023-07-30T12:59:56;1.50;;;1.30;;
2662;SDS011;49701;48.072;7.800;2023-07-30T13:02:22;1.98;;;1.27;;
2662;SDS011;49701;48.072;7.800;2023-07-30T13:04:48;2.97;;;1.05;;
2662;SDS011;49701;48.072;7.800;2023-07-30T13:07:13;2.15;;;1.10;;
2662;SDS011;49701;48.072;7.800;2023-07-30T13:09:39;1.75;;;0.95;;
2662;SDS011;49701;48.072;7.800;2023-07-30T13:12:05;5.68;;;1.10;;
2662;SDS011;49701;48.072;7.800;2023-07-30T13:14:31;2.15;;;1.10;;
2662;SDS011;49701;48.072;7.800;2023-07-30T13:16:57;3.42;;;1.08;;
2662;SDS011;49701;48.072;7.800;2023-07-30T13:19:22;2.58;;;1.30;;
2662;SDS011;49701;48.072;7.800;2023-07-30T13:21:48;1.50;;;1.05;;
2662;SDS011;49701;48.072;7.800;2023-07-30T13:24:14;2.30;;;1.25;;
2662;SDS011;49701;48.072;7.800;2023-07-30T13:26:40;2.25;;;1.00;;
2662;SDS011;49701;48.072;7.800;2023-07-30T13:29:05;4.18;;;1.17;;
2662;SDS011;49701;48.072;7.800;2023-07-30T13:31:31;2.28;;;0.95;;
2662;SDS011;49701;48.072;7.800;2023-07-30T13:33:56;2.25;;;1.00;;
2662;SDS011;49701;48.072;7.800;2023-07-30T13:36:22;1.73;;;0.90;;
2662;SDS011;49701;48.072;7.800;2023-07-30T13:38:48;1.30;;;0.90;;
2662;SDS011;49701;48.072;7.800;2023-07-30T13:41:14;2.63;;;0.88;;
2662;SDS011;49701;48.072;7.800;2023-07-30T13:43:39;3.17;;;1.23;;
2662;SDS011;49701;48.072;7.800;2023-07-30T13:46:05;3.70;;;1.00;;
2662;SDS011;49701;48.072;7.800;2023-07-30T13:48:31;1.70;;;0.95;;
2662;SDS011;49701;48.072;7.800;2023-07-30T13:50:56;2.67;;;1.45;;
2662;SDS011;49701;48.072;7.800;2023-07-30T13:53:22;1.70;;;1.27;;
2662;SDS011;49701;48.072;7.800;2023-07-30T13:55:48;3.13;;;1.10;;
2662;SDS011;49701;48.072;7.800;2023-07-30T13:58:14;2.13;;;1.13;;
2662;SDS011;49701;48.072;7.800;2023-07-30T14:00:40;1.75;;;1.02;;
2662;SDS011;49701;48.072;7.800;2023-07-30T14:03:07;1.40;;;1.00;;
2662;SDS011;49701;48.072;7.800;2023-07-30T14:05:34;1.80;;;1.17;;
2662;SDS011;49701;48.072;7.800;2023-07-30T14:07:59;1.92;;;0.98;;
2662;SDS011;49701;48.072;7.800;2023-07-30T14:10:25;4.05;;;1.10;;
2662;SDS011;49701;48.072;7.800;2023-07-30T14:12:52;1.77;;;1.10;;
2662;SDS011;49701;48.072;7.800;2023-07-30T14:15:18;2.95;;;1.08;;
2662;SDS011;49701;48.072;7.800;2023-07-30T14:17:43;2.50;;;1.20;;
2662;SDS011;49701;48.072;7.800;2023-07-30T14:20:09;4.50;;;1.15;;
2662;SDS011;49701;48.072;7.800;2023-07-30T14:22:35;4.20;;;1.10;;
2662;SDS011;49701;48.072;7.800;2023-07-30T14:25:01;3.95;;;1.27;;
2662;SDS011;49701;48.072;7.800;2023-07-30T14:27:27;4.72;;;1.30;;
2662;SDS011;49701;48.072;7.800;2023-07-30T14:29:53;2.58;;;1.20;;
2662;SDS011;49701;48.072;7.800;2023-07-30T14:32:19;2.75;;;1.00;;
2662;SDS011;49701;48.072;7.800;2023-07-30T14:34:46;3.90;;;1.00;;
2662;SDS011;49701;48.072;7.800;2023-07-30T14:37:11;2.53;;;1.10;;
2662;SDS011;49701;48.072;7.800;2023-07-30T14:39:37;2.30;;;1.08;;
2662;SDS011;49701;48.072;7.800;2023-07-30T14:42:04;1.95;;;1.05;;
2662;SDS011;49701;48.072;7.800;2023-07-30T14:44:30;2.20;;;1.08;;
2662;SDS011;49701;48.072;7.800;2023-07-30T14:46:56;1.48;;;1.00;;
2662;SDS011;49701;48.072;7.800;2023-07-30T14:49:23;3.58;;;1.20;;
2662;SDS011;49701;48.072;7.800;2023-07-30T14:51:49;1.83;;;1.00;;
2662;SDS011;49701;48.072;7.800;2023-07-30T14:54:18;2.00;;;0.82;;
2662;SDS011;49701;48.072;7.800;2023-07-30T14:56:43;1.92;;;1.00;;
2662;SDS011;49701;48.072;7.800;2023-07-30T14:59:10;2.40;;;1.00;;
2662;SDS011;49701;48.072;7.800;2023-07-30T15:01:36;4.00;;;1.10;;
2662;SDS011;49701;48.072;7.800;2023-07-30T15:04:02;4.47;;;1.08;;
2662;SDS011;49701;48.072;7.800;2023-07-30T15:06:29;3.78;;;1.02;;
2662;SDS011;49701;48.072;7.800;2023-07-30T15:08:55;3.35;;;1.00;;
2662;SDS011;49701;48.072;7.800;2023-07-30T15:11:21;2.50;;;0.90;;
2662;SDS011;49701;48.072;7.800;2023-07-30T15:13:47;2.13;;;1.00;;